Time;durP1;ratioP1;P1;durP2;ratioP2;P2;SDS_P1;SDS_P2;PMS_P1;PMS_P2;Temp;Humidity;BMP_temperature;BMP_pressure;BME280_temperature;BME280_humidity;BME280_pressure;Samples;Min_cycle;Max_cycle;Signal;HPM_P1;HPM_P2
2022/02/05 00:01:46;;;;;;;120.25;50.85;;;;;;;-2.22;66.77;95576.16;5048110;28;20025;-75
2022/02/05 00:04:14;;;;;;;129.85;56.60;;;;;;;-2.19;66.63;95575.16;5032095;28;20113;-75
2022/02/05 00:06:43;;;;;;;130.10;55.60;;;;;;;-2.15;65.99;95576.63;5030279;28;20078;-76
2022/02/05 00:41:47;;;;;;;98.75;39.40;;;;;;;-2.83;65.24;95605.19;5046475;28;20518;-77
2022/02/05 00:44:13;;;;;;;86.15;39.67;;;;;;;-2.72;64.95;95604.56;5046767;28;20380;-76
2022/02/05 00:46:40;;;;;;;81.05;37.33;;;;;;;-2.75;64.66;95595.09;5046132;28;20094;-77
2022/02/05 00:49:06;;;;;;;83.68;37.67;;;;;;;-2.79;64.56;95589.16;5047275;28;20025;-75
2022/02/05 00:51:37;;;;;;;76.15;34.42;;;;;;;-2.65;63.81;95596.25;5013367;28;20112;-75
2022/02/05 00:54:09;;;;;;;75.43;33.80;;;;;;;-2.68;63.16;95592.94;5046979;28;20040;-76
2022/02/05 00:56:50;;;;;;;74.80;34.35;;;;;;;-2.83;63.91;95586.81;5047730;28;20033;-76
2022/02/05 00:59:17;;;;;;;71.43;34.95;;;;;;;-2.80;65.20;95582.22;5045863;28;20033;-76
2022/02/05 01:01:43;;;;;;;77.72;35.20;;;;;;;-2.72;65.22;95588.81;5046006;28;20021;-76
2022/02/05 01:04:08;;;;;;;77.15;34.10;;;;;;;-2.79;64.49;95580.47;5045851;28;20167;-76
2022/02/05 01:06:34;;;;;;;75.32;33.25;;;;;;;-2.80;64.51;95582.22;5012626;28;20407;-76
2022/02/05 01:09:03;;;;;;;68.47;33.10;;;;;;;-2.90;64.90;95576.66;5029297;28;20036;-76
2022/02/05 01:11:28;;;;;;;65.72;32.22;;;;;;;-2.92;64.72;95581.19;5029281;28;20108;-75
2022/02/05 01:13:56;;;;;;;67.45;31.13;;;;;;;-2.93;65.05;95576.84;5045911;28;20033;-77
2022/02/05 01:16:31;;;;;;;73.68;31.85;;;;;;;-2.96;65.01;95570.94;5046697;28;20029;-76
2022/02/05 01:18:56;;;;;;;59.53;30.02;;;;;;;-3.02;65.20;95565.13;5045862;28;20036;-76
2022/02/05 01:23:52;;;;;;;61.83;31.50;;;;;;;-3.11;65.34;95571.75;5047106;28;20025;-76
2022/02/05 01:26:33;;;;;;;67.22;33.40;;;;;;;-3.19;65.44;95555.59;5047980;28;20063;-76
2022/02/05 01:29:07;;;;;;;67.18;33.17;;;;;;;-3.20;65.76;95558.31;5045326;28;20068;-76
2022/02/05 01:31:41;;;;;;;68.57;32.60;;;;;;;-3.14;65.55;95558.81;5047031;28;20036;-77
2022/02/05 01:34:20;;;;;;;87.82;38.47;;;;;;;-3.10;66.13;95559.47;5046269;28;20404;-76
2022/02/05 01:55:32;;;;;;;70.82;33.58;;;;;;;-3.25;65.43;95561.22;5044833;28;20040;-75
2022/02/05 02:06:08;;;;;;;80.97;34.13;;;;;;;-3.41;65.94;95562.09;5046574;28;20505;-75
2022/02/05 02:22:33;;;;;;;84.55;37.13;;;;;;;-3.37;66.30;95557.53;5044414;28;20577;-76
2022/02/05 02:32:10;;;;;;;68.32;30.25;;;;;;;-3.42;65.26;95554.31;5044716;28;20474;-77
2022/02/05 02:34:41;;;;;;;69.97;30.60;;;;;;;-3.38;65.29;95550.56;5045641;28;20025;-75
2022/02/05 02:37:13;;;;;;;74.22;30.23;;;;;;;-3.35;65.04;95545.16;5044646;28;20045;-75
2022/02/05 02:40:04;;;;;;;66.38;31.38;;;;;;;-3.39;65.33;95554.13;5046198;28;20028;-76
2022/02/05 02:42:25;;;;;;;77.85;35.95;;;;;;;-3.41;64.37;95551.59;5043434;28;20044;-75
2022/02/05 02:44:50;;;;;;;84.65;39.13;;;;;;;-3.36;64.64;95552.19;5028215;28;20029;-75
2022/02/05 02:47:15;;;;;;;81.82;35.78;;;;;;;-3.40;65.01;95563.78;5045474;28;20087;-75
2022/02/05 02:57:55;;;;;;;69.15;33.03;;;;;;;-3.24;65.28;95557.66;5046001;28;20040;-76
2022/02/05 03:00:20;;;;;;;70.85;32.88;;;;;;;-3.23;65.41;95554.09;5043754;28;20480;-76
2022/02/05 03:02:46;;;;;;;73.82;32.92;;;;;;;-3.21;65.06;95562.75;5028072;28;20097;-76
2022/02/05 03:05:11;;;;;;;71.80;34.55;;;;;;;-3.24;64.61;95565.53;5045624;28;20033;-76
2022/02/05 03:07:37;;;;;;;70.38;33.45;;;;;;;-3.26;64.72;95563.00;5045447;28;20495;-75
2022/02/05 03:10:03;;;;;;;70.13;32.58;;;;;;;-3.26;65.44;95563.00;5044529;28;20025;-76
2022/02/05 03:12:28;;;;;;;69.47;33.75;;;;;;;-3.27;65.58;95561.28;5044884;28;20102;-74
2022/02/05 03:14:54;;;;;;;74.07;31.80;;;;;;;-3.25;64.73;95561.22;5045717;28;20082;-74
2022/02/05 03:17:22;;;;;;;74.70;33.95;;;;;;;-3.32;64.61;95563.34;5027394;28;20063;-76
2022/02/05 03:19:49;;;;;;;68.55;31.50;;;;;;;-3.33;64.81;95576.53;5044341;28;20040;-76
2022/02/05 03:22:18;;;;;;;61.28;30.00;;;;;;;-3.36;64.58;95569.69;5027481;28;20411;-77
2022/02/05 03:24:43;;;;;;;64.50;32.00;;;;;;;-3.40;65.08;95571.66;5027229;28;20033;-76
2022/02/05 03:27:11;;;;;;;65.38;30.35;;;;;;;-3.41;64.66;95575.22;5044378;28;20060;-77
2022/02/05 03:29:37;;;;;;;63.40;29.40;;;;;;;-3.50;64.87;95573.13;5027586;28;20116;-75
2022/02/05 03:32:02;;;;;;;62.78;28.75;;;;;;;-3.51;64.75;95569.63;5027823;28;20133;-77
2022/02/05 03:34:28;;;;;;;60.03;29.70;;;;;;;-3.52;64.69;95575.81;5045774;28;20514;-75
2022/02/05 03:36:55;;;;;;;59.10;30.35;;;;;;;-3.51;64.65;95576.66;5031540;28;20021;-75
2022/02/05 03:39:20;;;;;;;60.13;29.90;;;;;;;-3.53;64.36;95574.13;5048671;28;20650;-75
2022/02/05 03:41:45;;;;;;;58.47;27.95;;;;;;;-3.57;64.96;95583.09;5048696;28;20033;-75
2022/02/05 03:44:11;;;;;;;62.88;29.33;;;;;;;-3.60;65.30;95584.13;5047446;28;20049;-75
2022/02/05 03:46:36;;;;;;;58.05;27.98;;;;;;;-3.66;65.36;95583.63;5048516;28;20036;-76
2022/02/05 03:49:02;;;;;;;55.72;26.70;;;;;;;-3.66;64.85;95584.44;5048910;28;20407;-76
2022/02/05 03:51:27;;;;;;;50.80;26.75;;;;;;;-3.67;64.82;95581.91;5048925;28;20461;-76
2022/02/05 03:53:53;;;;;;;49.83;25.85;;;;;;;-3.72;65.03;95600.53;5030744;28;20114;-75
2022/02/05 03:56:18;;;;;;;53.05;25.23;;;;;;;-3.77;65.25;95586.84;5046922;28;20021;-76
2022/02/05 03:58:44;;;;;;;51.25;27.30;;;;;;;-3.79;65.17;95586.91;5030515;28;20021;-76
2022/02/05 04:01:09;;;;;;;54.65;26.75;;;;;;;-3.79;65.65;95596.56;5030379;28;20053;-76
2022/02/05 04:03:35;;;;;;;50.17;25.77;;;;;;;-3.70;65.25;95593.44;5047992;28;20127;-76
2022/02/05 04:06:00;;;;;;;56.58;26.73;;;;;;;-3.77;65.81;95597.34;5048545;28;20025;-76
2022/02/05 04:08:26;;;;;;;50.22;25.17;;;;;;;-3.83;65.13;95595.03;5046797;28;20029;-76
2022/02/05 04:11:03;;;;;;;50.88;27.08;;;;;;;-3.88;65.81;95584.78;5046864;28;20031;-76
2022/02/05 04:16:24;;;;;;;57.60;26.42;;;;;;;-3.92;65.45;95589.38;5048451;28;20035;-76
2022/02/05 04:18:50;;;;;;;51.75;26.35;;;;;;;-3.97;65.55;95586.16;5046747;28;20035;-76
2022/02/05 04:21:16;;;;;;;59.03;27.63;;;;;;;-3.96;65.44;95572.13;5046703;28;20526;-77
2022/02/05 04:23:41;;;;;;;55.55;28.27;;;;;;;-3.99;66.17;95582.78;5030124;28;20029;-77
2022/02/05 04:26:07;;;;;;;59.50;27.73;;;;;;;-3.94;66.05;95583.38;5030155;28;20027;-76
2022/02/05 04:28:34;;;;;;;58.80;30.73;;;;;;;-3.93;66.30;95590.28;5047025;28;20025;-77
2022/02/05 04:30:59;;;;;;;60.65;28.83;;;;;;;-3.94;66.39;95590.38;5046193;28;20037;-75
2022/02/05 04:33:24;;;;;;;60.58;30.27;;;;;;;-3.94;66.50;95587.75;5046745;28;20028;-76
2022/02/05 04:35:50;;;;;;;58.17;29.00;;;;;;;-4.04;67.04;95590.88;5047585;28;20029;-75
2022/02/05 04:38:16;;;;;;;62.95;29.30;;;;;;;-4.05;66.85;95594.44;5047765;28;20488;-76
2022/02/05 04:40:50;;;;;;;67.70;31.02;;;;;;;-3.98;67.51;95587.06;5047697;28;20032;-74
2022/02/05 04:56:25;;;;;;;64.85;32.40;;;;;;;-3.71;65.85;95586.50;5046006;28;20036;-76
2022/02/05 05:02:37;;;;;;;67.30;31.33;;;;;;;-3.65;65.77;95580.91;5047230;28;20450;-74
2022/02/05 05:10:21;;;;;;;118.93;41.30;;;;;;;-3.61;65.33;95587.66;5044106;28;20033;-76
2022/02/05 05:13:04;;;;;;;84.32;36.20;;;;;;;-3.51;65.08;95588.00;5045502;28;20088;-75
2022/02/05 05:21:05;;;;;;;80.55;36.17;;;;;;;-3.50;65.83;95594.09;5045778;28;20541;-76
2022/02/05 05:23:30;;;;;;;79.88;36.15;;;;;;;-3.50;66.38;95589.69;5045520;28;20025;-76
2022/02/05 05:25:55;;;;;;;84.70;36.58;;;;;;;-3.52;66.28;95603.81;5045126;28;20032;-75
2022/02/05 05:28:21;;;;;;;73.30;34.72;;;;;;;-3.51;66.80;95602.88;5045779;28;20025;-78
2022/02/05 05:30:46;;;;;;;86.93;36.65;;;;;;;-3.52;66.81;95602.06;5046557;28;20036;-76
2022/02/05 05:33:12;;;;;;;93.82;37.25;;;;;;;-3.52;66.25;95614.31;5045521;28;20029;-76
2022/02/05 05:35:40;;;;;;;90.93;37.15;;;;;;;-3.56;65.84;95602.31;5045420;28;20025;-76
2022/02/05 05:38:06;;;;;;;103.90;40.17;;;;;;;-3.55;66.08;95611.84;5029280;28;20059;-76
2022/02/05 05:40:32;;;;;;;86.82;39.63;;;;;;;-3.46;65.20;95608.72;5028548;28;20159;-74
2022/02/05 05:43:04;;;;;;;87.95;37.40;;;;;;;-3.54;64.71;95614.41;5028386;28;20043;-77
2022/02/05 05:48:15;;;;;;;55.38;28.52;;;;;;;-3.56;63.79;95616.25;5045179;28;20431;-77
2022/02/05 05:53:12;;;;;;;64.30;30.63;;;;;;;-3.66;64.92;95612.47;5044612;28;20082;-74
2022/02/05 05:55:45;;;;;;;73.07;34.00;;;;;;;-3.62;64.84;95627.94;5012363;28;20375;-78
2022/02/05 05:58:11;;;;;;;72.63;32.60;;;;;;;-3.61;65.11;95626.16;5045127;28;20029;-77
2022/02/05 06:00:38;;;;;;;66.15;30.13;;;;;;;-3.58;64.85;95633.88;5028324;28;20039;-76
2022/02/05 06:03:03;;;;;;;58.42;27.50;;;;;;;-3.58;65.07;95638.25;5044983;28;20403;-77
2022/02/05 06:05:29;;;;;;;57.95;28.33;;;;;;;-3.61;65.21;95628.78;5045911;28;20021;-77
2022/02/05 06:07:54;;;;;;;62.25;30.75;;;;;;;-3.61;64.79;95628.78;5045058;28;20037;-77
2022/02/05 06:10:19;;;;;;;67.82;31.80;;;;;;;-3.54;64.42;95626.66;5044401;28;20036;-75
2022/02/05 06:12:45;;;;;;;63.75;30.20;;;;;;;-3.44;64.87;95630.47;5044891;28;20040;-76
2022/02/05 06:15:10;;;;;;;62.65;31.08;;;;;;;-3.23;63.64;95632.81;5045542;28;20031;-77
2022/02/05 06:17:37;;;;;;;60.97;30.00;;;;;;;-3.23;63.17;95643.31;5046343;28;20326;-76
2022/02/05 06:20:03;;;;;;;57.33;29.02;;;;;;;-3.27;62.88;95654.88;5028521;28;20453;-76
2022/02/05 06:22:28;;;;;;;60.30;27.33;;;;;;;-3.27;63.60;95650.50;5044355;28;20025;-75
2022/02/05 06:24:54;;;;;;;61.88;29.70;;;;;;;-3.04;62.47;95647.50;5046365;28;20095;-76
2022/02/05 06:27:19;;;;;;;57.22;27.40;;;;;;;-3.07;63.34;95660.78;5027823;28;20090;-77
2022/02/05 06:29:45;;;;;;;51.33;27.85;;;;;;;-2.95;62.73;95656.63;5044971;28;20541;-77
2022/02/05 06:32:10;;;;;;;62.72;28.88;;;;;;;-2.89;62.48;95654.50;5045393;28;20036;-76
2022/02/05 06:34:36;;;;;;;61.85;30.63;;;;;;;-2.74;62.62;95654.56;5045941;28;20040;-76
2022/02/05 06:37:01;;;;;;;63.58;31.48;;;;;;;-2.54;61.15;95663.88;5028036;28;20498;-76
2022/02/05 06:39:27;;;;;;;66.00;33.08;;;;;;;-2.30;60.51;95654.63;5044153;28;20056;-77
2022/02/05 06:41:52;;;;;;;65.07;32.95;;;;;;;-2.29;60.79;95653.69;5044839;28;20032;-76
2022/02/05 06:44:18;;;;;;;54.92;29.10;;;;;;;-2.28;60.16;95655.38;5045395;28;20475;-75
2022/02/05 06:46:43;;;;;;;61.53;28.50;;;;;;;-2.21;60.54;95646.19;5044936;28;20017;-76
2022/02/05 06:49:09;;;;;;;50.60;27.00;;;;;;;-2.04;60.27;95646.94;5027627;28;20529;-77
2022/02/05 06:51:34;;;;;;;52.45;26.48;;;;;;;-1.86;59.51;95650.22;5027919;28;20466;-75
2022/02/05 06:54:00;;;;;;;52.58;26.85;;;;;;;-1.86;59.69;95644.97;5044999;28;20549;-75
2022/02/05 06:56:25;;;;;;;49.78;25.15;;;;;;;-1.72;59.04;95644.09;5044091;28;20029;-75
2022/02/05 06:58:51;;;;;;;54.50;27.90;;;;;;;-1.54;58.97;95638.63;5044243;28;20040;-75
2022/02/05 07:01:16;;;;;;;54.60;28.67;;;;;;;-1.42;58.57;95637.03;5027727;28;20022;-75
2022/02/05 07:03:42;;;;;;;66.80;31.27;;;;;;;-1.26;58.21;95647.41;5027742;28;20025;-76
2022/02/05 07:06:07;;;;;;;59.65;29.80;;;;;;;-1.06;57.92;95651.38;5027569;28;20414;-77
2022/02/05 07:08:33;;;;;;;60.53;29.92;;;;;;;-0.94;57.40;95640.97;5028597;28;20029;-77
2022/02/05 07:10:58;;;;;;;53.33;27.90;;;;;;;-0.91;57.19;95644.28;5047810;28;20025;-75
2022/02/05 07:13:24;;;;;;;55.95;29.15;;;;;;;-0.64;57.16;95645.16;5049223;28;20053;-76
2022/02/05 07:18:28;;;;;;;57.78;30.80;;;;;;;-0.38;56.45;95648.69;5049247;28;20051;-76
2022/02/05 07:21:01;;;;;;;55.88;29.30;;;;;;;-0.20;54.89;95656.28;5048343;28;20080;-77
2022/02/05 07:23:43;;;;;;;65.20;29.90;;;;;;;0.05;54.81;95653.78;5048861;28;20021;-75
2022/02/05 07:31:38;;;;;;;61.35;31.80;;;;;;;0.42;54.29;95655.63;5048691;28;20064;-76
2022/02/05 07:34:04;;;;;;;64.05;34.80;;;;;;;0.57;53.72;95654.53;5031790;28;20059;-77
2022/02/05 07:36:30;;;;;;;64.72;35.95;;;;;;;0.71;54.68;95660.63;5047234;28;20411;-77
2022/02/05 07:38:55;;;;;;;64.47;35.00;;;;;;;0.91;54.33;95671.53;5047761;28;20032;-76
2022/02/05 07:41:21;;;;;;;59.38;34.47;;;;;;;1.05;52.73;95673.19;5047164;28;20020;-77
2022/02/05 07:43:46;;;;;;;66.70;35.53;;;;;;;1.08;53.48;95665.84;5049183;28;20032;-75
2022/02/05 07:46:12;;;;;;;53.88;31.27;;;;;;;1.28;53.29;95654.78;5048788;28;20021;-76
2022/02/05 07:48:37;;;;;;;59.75;33.33;;;;;;;1.27;53.88;95658.38;5048224;28;20029;-75
2022/02/05 07:51:03;;;;;;;59.00;31.70;;;;;;;1.32;53.55;95654.44;5047665;28;20545;-77
2022/02/05 07:53:29;;;;;;;58.45;29.95;;;;;;;1.42;53.13;95661.69;5047358;28;20359;-76
2022/02/05 07:55:55;;;;;;;49.90;27.15;;;;;;;1.53;53.03;95666.16;5047255;28;20028;-77
2022/02/05 07:58:20;;;;;;;47.58;26.60;;;;;;;1.61;52.48;95674.38;5048451;28;20060;-77
2022/02/05 08:00:45;;;;;;;43.88;26.38;;;;;;;1.56;53.01;95682.66;5048902;28;20058;-77
2022/02/05 08:03:11;;;;;;;46.85;24.75;;;;;;;1.66;52.59;95680.13;5030372;28;20032;-77
2022/02/05 08:05:36;;;;;;;45.17;25.17;;;;;;;1.77;51.64;95683.78;5047003;28;20028;-76
2022/02/05 08:08:04;;;;;;;50.17;27.65;;;;;;;1.68;51.98;95685.31;5047000;28;20029;-76
2022/02/05 08:10:35;;;;;;;44.38;26.17;;;;;;;1.65;51.88;95685.53;5047006;28;20025;-75
2022/02/05 08:13:01;;;;;;;47.83;27.15;;;;;;;1.56;52.08;95684.44;5048323;28;20451;-76
2022/02/05 08:15:30;;;;;;;53.25;28.08;;;;;;;1.60;52.68;95676.16;5048048;28;20538;-76
2022/02/05 08:17:56;;;;;;;52.22;29.70;;;;;;;1.64;52.37;95678.56;5048569;28;20086;-77
2022/02/05 08:20:22;;;;;;;46.72;27.45;;;;;;;1.64;52.58;95665.34;5046747;28;20025;-75
2022/02/05 08:22:47;;;;;;;51.33;29.40;;;;;;;1.73;52.40;95651.44;5030188;28;20078;-76
2022/02/05 08:25:13;;;;;;;50.80;29.48;;;;;;;2.12;52.08;95645.00;5046665;28;20029;-76
2022/02/05 08:27:40;;;;;;;60.05;28.60;;;;;;;2.25;51.34;95643.09;5030007;28;20040;-81
2022/02/05 08:30:10;;;;;;;52.00;29.48;;;;;;;2.19;52.28;95641.75;5046679;28;20036;-79
2022/02/05 08:32:35;;;;;;;46.78;28.77;;;;;;;2.21;52.07;95644.28;5030402;28;20025;-78
2022/02/05 08:35:01;;;;;;;57.63;31.25;;;;;;;2.37;51.59;95641.25;5030042;28;20036;-79
2022/02/05 08:37:27;;;;;;;58.30;33.20;;;;;;;2.36;52.72;95639.59;5046770;28;20052;-76
2022/02/05 08:39:52;;;;;;;57.17;33.28;;;;;;;2.41;51.57;95644.53;5030399;28;20036;-75
2022/02/05 08:42:18;;;;;;;54.50;30.33;;;;;;;2.56;51.10;95642.47;5029651;28;20056;-76
2022/02/05 08:44:43;;;;;;;47.35;28.80;;;;;;;2.58;50.53;95636.06;5046213;28;20017;-77
2022/02/05 08:47:09;;;;;;;48.10;28.20;;;;;;;2.48;51.18;95648.38;5048013;28;20473;-77
2022/02/05 08:49:34;;;;;;;51.55;27.75;;;;;;;2.54;51.25;95652.34;5047339;28;20044;-77
2022/02/05 08:52:05;;;;;;;47.38;27.38;;;;;;;2.56;51.20;95645.94;5047611;28;20494;-77
2022/02/05 08:54:31;;;;;;;49.17;27.17;;;;;;;2.55;51.93;95648.72;5030256;28;20120;-76
2022/02/05 08:56:57;;;;;;;45.17;25.10;;;;;;;2.53;52.12;95662.06;5047496;28;20029;-76
2022/02/05 08:59:24;;;;;;;49.65;26.83;;;;;;;2.54;51.99;95666.44;5047084;28;20106;-78
2022/02/05 09:01:58;;;;;;;43.50;27.08;;;;;;;2.57;52.38;95655.59;5045878;28;20104;-76
2022/02/05 09:06:59;;;;;;;43.95;27.75;;;;;;;2.81;51.76;95667.84;5045903;28;20037;-76
2022/02/05 09:12:18;;;;;;;49.80;29.40;;;;;;;2.95;51.12;95663.25;5045094;28;20116;-76
2022/02/05 09:14:46;;;;;;;50.25;28.05;;;;;;;3.13;51.47;95671.50;5032708;28;20086;-75
2022/02/05 09:17:12;;;;;;;50.45;27.95;;;;;;;3.21;51.90;95669.06;5045802;28;20075;-77
2022/02/05 09:19:38;;;;;;;50.97;28.58;;;;;;;3.34;51.64;95670.69;5045538;28;20380;-75
2022/02/05 09:22:05;;;;;;;50.40;29.88;;;;;;;3.44;50.36;95662.84;5046974;28;20028;-77
2022/02/05 09:24:31;;;;;;;50.47;28.83;;;;;;;3.61;50.50;95658.78;5045601;28;20032;-77
2022/02/05 09:27:01;;;;;;;47.20;29.17;;;;;;;3.71;50.22;95654.41;5045636;28;20022;-76
2022/02/05 09:29:27;;;;;;;63.53;32.75;;;;;;;3.66;50.34;95656.59;5045340;28;20074;-77
2022/02/05 09:31:53;;;;;;;64.63;36.40;;;;;;;3.74;50.18;95650.63;5045605;28;20028;-76
2022/02/05 09:34:18;;;;;;;61.10;34.15;;;;;;;3.82;49.56;95645.53;5046524;28;20025;-77
2022/02/05 09:36:44;;;;;;;74.80;38.17;;;;;;;3.89;48.87;95637.88;5045252;28;20093;-77
2022/02/05 09:39:10;;;;;;;66.22;36.63;;;;;;;4.03;48.24;95634.06;5045139;28;20029;-76
2022/02/05 09:41:36;;;;;;;60.03;33.53;;;;;;;4.10;47.92;95629.06;5046302;28;20033;-75
2022/02/05 09:44:02;;;;;;;56.15;33.40;;;;;;;4.02;48.29;95624.41;5045114;28;20033;-77
2022/02/05 09:46:28;;;;;;;66.30;34.47;;;;;;;4.12;48.34;95619.16;5045017;28;20032;-75
2022/02/05 09:48:54;;;;;;;60.42;33.63;;;;;;;4.12;48.21;95613.84;5047018;28;20025;-79
2022/02/05 09:51:32;;;;;;;65.75;35.85;;;;;;;4.19;48.76;95617.66;5044601;28;20416;-76
2022/02/05 09:53:58;;;;;;;67.95;37.15;;;;;;;4.30;49.39;95614.09;5045119;28;20036;-76
2022/02/05 09:56:24;;;;;;;68.45;38.25;;;;;;;4.31;50.04;95602.47;5028215;28;20033;-77
2022/02/05 09:58:50;;;;;;;67.10;37.45;;;;;;;4.32;50.01;95593.53;5045861;28;20028;-77
2022/02/05 10:01:34;;;;;;;68.65;36.58;;;;;;;4.41;49.86;95591.03;5028103;28;20056;-76
2022/02/05 10:04:00;;;;;;;64.60;36.42;;;;;;;4.50;50.01;95595.53;5044450;28;20112;-76
2022/02/05 10:06:29;;;;;;;65.43;35.78;;;;;;;4.56;49.93;95597.66;5028112;28;20503;-77
2022/02/05 10:09:06;;;;;;;58.03;32.53;;;;;;;4.66;48.31;95603.00;5044779;28;20310;-76
2022/02/05 10:11:44;;;;;;;59.72;30.90;;;;;;;4.70;48.72;95600.91;5044672;28;20059;-77
2022/02/05 10:14:21;;;;;;;48.33;26.92;;;;;;;4.74;47.52;95594.34;5030804;28;20056;-77
2022/02/05 10:16:51;;;;;;;46.88;27.02;;;;;;;4.76;47.58;95581.75;5046839;28;20045;-79
2022/02/05 10:19:17;;;;;;;47.92;27.00;;;;;;;4.77;48.42;95590.59;5046720;28;20025;-75
2022/02/05 10:21:43;;;;;;;49.38;27.85;;;;;;;4.80;48.80;95585.81;5046071;28;20457;-76
2022/02/05 10:24:09;;;;;;;46.58;28.02;;;;;;;4.84;48.43;95591.69;5011511;28;20106;-77
2022/02/05 10:26:42;;;;;;;49.85;28.13;;;;;;;4.91;49.37;95592.00;5028707;28;20021;-76
2022/02/05 10:29:15;;;;;;;56.65;28.85;;;;;;;4.96;48.61;95595.09;5011692;28;20116;-80
2022/02/05 10:32:03;;;;;;;55.58;30.55;;;;;;;4.95;49.50;95590.72;5045334;28;20029;-77
2022/02/05 10:34:31;;;;;;;56.45;32.05;;;;;;;4.98;49.85;95590.47;5044169;28;20523;-77
2022/02/05 10:37:11;;;;;;;61.53;31.83;;;;;;;4.95;49.43;95580.09;5029586;28;20056;-75
2022/02/05 10:40:13;;;;;;;54.17;30.75;;;;;;;4.97;49.59;95579.97;5044712;28;20029;-77
2022/02/05 10:45:12;;;;;;;50.67;30.15;;;;;;;5.13;50.74;95584.72;5034766;28;20036;-76
2022/02/05 10:47:48;;;;;;;49.28;30.45;;;;;;;5.10;51.37;95577.88;5048105;28;20021;-77
2022/02/05 10:50:16;;;;;;;55.97;30.98;;;;;;;5.11;50.85;95576.91;5048458;28;20025;-77
2022/02/05 10:52:43;;;;;;;55.88;32.47;;;;;;;5.13;50.60;95569.63;5050003;28;20025;-75
2022/02/05 10:57:58;;;;;;;52.58;31.40;;;;;;;5.32;50.57;95568.78;5050289;28;20037;-76
2022/02/05 11:08:05;;;;;;;63.60;33.00;;;;;;;5.87;48.89;95547.00;5049793;28;20025;-80
2022/02/05 11:10:56;;;;;;;70.68;33.63;;;;;;;6.03;48.99;95541.88;5048149;28;20039;-79
2022/02/05 11:16:47;;;;;;;57.05;32.03;;;;;;;6.40;48.44;95539.38;5033299;28;20033;-76
2022/02/05 11:19:11;;;;;;;59.05;30.13;;;;;;;6.41;47.32;95538.38;5048521;28;20055;-77
2022/02/05 11:21:36;;;;;;;53.67;31.50;;;;;;;6.40;47.90;95544.72;5030952;28;20029;-76
2022/02/05 11:24:04;;;;;;;56.20;30.58;;;;;;;6.41;48.35;95535.72;5048332;28;20048;-77
2022/02/05 11:26:30;;;;;;;65.20;31.00;;;;;;;6.41;47.75;95533.06;5014644;28;20036;-77
2022/02/05 11:28:58;;;;;;;45.83;29.08;;;;;;;6.43;48.88;95544.41;5031066;28;20056;-78
2022/02/05 11:34:19;;;;;;;52.78;28.25;;;;;;;6.46;48.62;95544.13;5032114;28;20403;-79
2022/02/05 11:36:45;;;;;;;50.85;29.42;;;;;;;6.53;49.34;95542.53;5047811;28;20029;-76
2022/02/05 11:39:16;;;;;;;54.78;31.42;;;;;;;6.35;48.74;95549.63;5047167;28;20025;-77
2022/02/05 11:41:44;;;;;;;54.75;31.20;;;;;;;6.17;49.63;95539.78;5047522;28;20057;-77
2022/02/05 11:44:29;;;;;;;57.40;31.20;;;;;;;6.00;50.62;95531.53;5047501;28;20530;-77
2022/02/05 11:47:03;;;;;;;54.60;30.98;;;;;;;5.91;50.14;95533.25;5030854;28;20025;-78
2022/02/05 11:49:55;;;;;;;55.47;30.58;;;;;;;5.85;50.02;95520.50;5048968;28;20031;-77
2022/02/05 11:52:36;;;;;;;53.28;31.73;;;;;;;5.82;50.72;95524.31;5047013;28;20120;-77
2022/02/05 11:55:08;;;;;;;55.17;30.88;;;;;;;5.84;51.15;95517.97;5048485;28;20102;-76
2022/02/05 11:57:43;;;;;;;52.57;29.90;;;;;;;5.91;50.31;95519.94;5047569;28;20028;-78
2022/02/05 12:00:10;;;;;;;54.95;31.40;;;;;;;6.01;50.05;95514.56;5048158;28;20295;-77
2022/02/05 12:02:57;;;;;;;57.63;30.50;;;;;;;6.11;50.32;95509.22;5030613;28;20042;-77
2022/02/05 12:05:27;;;;;;;52.20;30.13;;;;;;;6.24;49.08;95508.88;5047038;28;20043;-75
2022/02/05 12:08:05;;;;;;;50.45;30.67;;;;;;;6.36;49.56;95511.34;5048192;28;20025;-79
2022/02/05 12:10:38;;;;;;;52.20;32.17;;;;;;;6.47;49.33;95508.47;5048486;28;20108;-76
2022/02/05 12:13:15;;;;;;;;;;;;;;;6.56;50.15;95509.44;5047201;28;20053;-78
2022/02/05 12:15:45;;;;;;;52.92;30.73;;;;;;;6.63;50.00;95507.81;5046863;28;19913;-78
2022/02/05 12:26:17;;;;;;;50.92;30.63;;;;;;;6.92;49.15;95506.78;5045859;28;20037;-79
2022/02/05 12:28:43;;;;;;;57.40;31.58;;;;;;;7.01;49.30;95510.34;5048248;28;20028;-75
2022/02/05 12:31:18;;;;;;;54.40;32.22;;;;;;;7.11;48.96;95517.44;5046463;28;20087;-76
2022/02/05 12:33:56;;;;;;;55.92;33.90;;;;;;;7.20;49.29;95511.19;5047835;28;20021;-76
2022/02/05 12:36:28;;;;;;;51.67;31.55;;;;;;;7.21;50.14;95515.53;5048017;28;20036;-77
2022/02/05 12:38:55;;;;;;;58.05;32.95;;;;;;;7.27;50.04;95514.91;5047312;28;20051;-77
2022/02/05 12:41:22;;;;;;;48.45;31.25;;;;;;;7.25;49.97;95516.91;5048371;28;20526;-76
2022/02/05 12:43:55;;;;;;;50.20;30.55;;;;;;;7.32;49.79;95516.28;5047327;28;20035;-76
2022/02/05 12:46:34;;;;;;;55.78;30.77;;;;;;;7.42;49.01;95506.34;5029952;28;20585;-78
2022/02/05 12:49:07;;;;;;;62.05;31.13;;;;;;;7.47;49.20;95498.72;5046152;28;20025;-78
2022/02/05 12:51:33;;;;;;;55.25;32.45;;;;;;;7.53;49.10;95498.09;5030843;28;20031;-79
2022/02/05 12:54:14;;;;;;;57.17;32.40;;;;;;;7.54;48.91;95494.41;5046204;28;20025;-76
2022/02/05 12:56:40;;;;;;;60.80;31.13;;;;;;;7.58;49.23;95492.28;5030566;28;20401;-76
2022/02/05 12:59:11;;;;;;;58.47;32.25;;;;;;;7.59;49.37;95487.78;5047330;28;20032;-75
2022/02/05 13:01:38;;;;;;;53.75;30.08;;;;;;;7.57;48.60;95487.09;5045858;28;20025;-77
2022/02/05 13:04:13;;;;;;;48.33;29.27;;;;;;;7.77;48.82;95493.88;5045743;28;20112;-77
2022/02/05 13:06:38;;;;;;;47.78;24.98;;;;;;;7.84;48.54;95487.91;5045694;28;20487;-77
2022/02/05 13:09:24;;;;;;;34.95;21.63;;;;;;;7.99;48.15;95493.50;5045497;28;20029;-77
2022/02/05 13:12:10;;;;;;;35.85;21.55;;;;;;;8.25;47.49;95489.97;5046304;28;20246;-78
2022/02/05 13:14:35;;;;;;;30.38;19.50;;;;;;;8.47;48.14;95491.19;5012649;28;20040;-76
2022/02/05 13:17:00;;;;;;;30.27;19.95;;;;;;;8.71;48.08;95481.59;5046896;28;20375;-77
2022/02/05 13:19:29;;;;;;;31.80;20.73;;;;;;;8.93;48.38;95487.31;5045747;28;20376;-78
2022/02/05 13:25:33;;;;;;;30.15;17.23;;;;;;;9.13;46.22;95493.19;5047100;28;20040;-76
2022/02/05 13:36:09;;;;;;;12.98;3.90;;;;;;;9.31;44.67;95504.72;5046515;28;20526;-78
2022/02/05 13:38:49;;;;;;;5.13;3.25;;;;;;;9.32;45.00;95507.22;5046823;28;20033;-77
2022/02/05 13:41:14;;;;;;;6.03;3.10;;;;;;;9.37;44.93;95520.09;5030811;28;20024;-77
2022/02/05 13:43:57;;;;;;;6.95;3.78;;;;;;;9.42;45.06;95519.59;5046380;28;20091;-77
2022/02/05 13:46:23;;;;;;;6.60;3.40;;;;;;;9.53;44.81;95511.25;5029180;28;20060;-77
2022/02/05 13:48:48;;;;;;;5.00;3.42;;;;;;;9.58;44.18;95511.56;5045002;28;20403;-76
2022/02/05 13:51:16;;;;;;;8.20;3.53;;;;;;;9.66;44.50;95508.03;5046279;28;20039;-77
2022/02/05 13:53:53;;;;;;;7.75;4.00;;;;;;;9.53;45.13;95503.22;5045475;28;20505;-78
2022/02/05 13:56:19;;;;;;;6.65;3.63;;;;;;;9.71;45.18;95510.22;5044702;28;20048;-77
2022/02/05 13:58:44;;;;;;;7.90;3.63;;;;;;;9.86;44.63;95507.69;5045218;28;20025;-77
2022/02/05 14:01:10;;;;;;;7.32;3.78;;;;;;;9.71;43.59;95500.34;5044588;28;20040;-77
2022/02/05 14:03:40;;;;;;;5.65;3.83;;;;;;;9.67;43.62;95507.06;5046508;28;20039;-75
2022/02/05 14:06:16;;;;;;;9.70;3.97;;;;;;;9.55;43.88;95497.69;5028159;28;20086;-77
2022/02/05 14:08:51;;;;;;;6.40;4.05;;;;;;;9.48;44.02;95484.97;5028684;28;20126;-77
2022/02/05 14:11:27;;;;;;;7.50;4.28;;;;;;;9.34;43.79;95488.31;5047193;28;20024;-78
2022/02/05 14:14:00;;;;;;;6.85;4.60;;;;;;;9.25;44.75;95495.53;5044627;28;20373;-79
2022/02/05 14:16:36;;;;;;;8.65;4.63;;;;;;;9.05;45.00;95492.34;5028319;28;20064;-76
2022/02/05 14:19:04;;;;;;;11.60;4.95;;;;;;;9.07;45.17;95503.72;5027813;28;20120;-76
2022/02/05 14:21:48;;;;;;;7.25;4.53;;;;;;;9.01;45.42;95506.03;5028798;28;20029;-76
2022/02/05 14:24:23;;;;;;;8.25;4.38;;;;;;;8.89;45.82;95512.72;5045845;28;20053;-76
2022/02/05 14:27:05;;;;;;;8.75;4.28;;;;;;;8.87;45.83;95512.03;5045935;28;20032;-76
2022/02/05 14:40:45;;;;;;;9.60;4.50;;;;;;;8.18;47.78;95516.47;5045484;28;20186;-78
2022/02/05 14:43:11;;;;;;;;;;;;;;;8.11;47.77;95508.25;5045431;28;20637;-77